Time;durP1;ratioP1;P1;durP2;ratioP2;P2;SDS_P1;SDS_P2;PMS_P1;PMS_P2;Temp;Humidity;BMP_temperature;BMP_pressure;BME280_temperature;BME280_humidity;BME280_pressure;Samples;Min_cycle;Max_cycle;Signal;HPM_P1;HPM_P2
2023/05/29 00:01:52;;;;;;;17.35;4.25;;;;;;;10.14;100.00;102342.88;5109111;28;20043;-44
2023/05/29 00:04:17;;;;;;;14.85;4.00;;;;;;;10.57;100.00;102410.97;5112793;28;20032;-50
2023/05/29 00:06:42;;;;;;;14.55;3.50;;;;;;;10.55;100.00;102410.13;5112749;28;20043;-46
2023/05/29 00:09:08;;;;;;;17.08;3.55;;;;;;;10.54;100.00;102418.91;5112177;28;20028;-48
2023/05/29 00:11:33;;;;;;;17.48;3.88;;;;;;;10.52;100.00;102416.31;5111844;28;20028;-44
2023/05/29 00:13:59;;;;;;;17.73;3.88;;;;;;;10.49;100.00;102400.53;5112662;28;20040;-44
2023/05/29 00:16:24;;;;;;;16.02;4.35;;;;;;;10.09;100.00;102338.50;5113555;28;20036;-46
2023/05/29 00:18:51;;;;;;;15.57;3.85;;;;;;;10.44;100.00;102391.78;5110757;28;20031;-44
2023/05/29 00:21:17;;;;;;;12.95;3.72;;;;;;;10.40;100.00;102402.34;5116419;28;20058;-44
2023/05/29 00:23:42;;;;;;;16.88;3.72;;;;;;;10.43;100.00;102407.59;5104221;28;20467;-47
2023/05/29 00:26:08;;;;;;;21.08;4.03;;;;;;;10.41;100.00;102404.09;5116400;28;20479;-44
2023/05/29 00:28:35;;;;;;;20.88;4.55;;;;;;;10.11;100.00;102355.13;5116552;28;20501;-45
2023/05/29 00:31:00;;;;;;;14.23;3.72;;;;;;;10.29;100.00;102391.00;5115290;28;20060;-46
2023/05/29 00:33:26;;;;;;;18.58;4.05;;;;;;;10.36;100.00;102405.91;5116518;28;20035;-43
2023/05/29 00:35:51;;;;;;;15.20;3.53;;;;;;;9.85;100.00;102331.63;5115053;28;20039;-45
2023/05/29 00:38:16;;;;;;;15.43;3.67;;;;;;;10.21;100.00;102396.34;5116251;28;20039;-45
2023/05/29 00:40:42;;;;;;;14.35;4.05;;;;;;;10.25;100.00;102428.75;5115010;28;20034;-47
2023/05/29 00:43:07;;;;;;;14.82;4.35;;;;;;;10.21;100.00;102427.03;5116220;28;20097;-45
2023/05/29 00:45:36;;;;;;;9.90;3.08;;;;;;;9.79;100.00;102357.06;5116236;28;20042;-45
2023/05/29 00:48:02;;;;;;;15.75;3.58;;;;;;;9.76;100.00;102360.59;5099934;28;20055;-51
2023/05/29 00:50:28;;;;;;;12.15;3.67;;;;;;;10.10;100.00;102432.31;5114839;28;20472;-46
2023/05/29 00:52:54;;;;;;;12.05;3.83;;;;;;;9.58;100.00;102360.66;5110284;28;20044;-45
2023/05/29 00:55:19;;;;;;;14.90;3.90;;;;;;;9.96;100.00;102420.97;5108440;28;20563;-43
2023/05/29 00:57:46;;;;;;;16.92;4.47;;;;;;;9.92;100.00;102414.88;5115924;28;20035;-45
2023/05/29 01:00:13;;;;;;;13.90;5.03;;;;;;;9.98;100.00;102451.66;5093880;28;20483;-44
2023/05/29 01:02:40;;;;;;;14.95;4.07;;;;;;;9.86;100.00;102427.19;5104625;28;20070;-45
2023/05/29 01:05:06;;;;;;;20.05;4.13;;;;;;;9.46;100.00;102352.81;5114359;28;20122;-50
2023/05/29 01:07:32;;;;;;;16.90;3.45;;;;;;;9.84;100.00;102423.66;5114253;28;20176;-45
2023/05/29 01:09:58;;;;;;;13.63;4.22;;;;;;;9.78;100.00;102431.59;5111277;28;20032;-46
2023/05/29 01:12:35;;;;;;;17.40;3.55;;;;;;;9.75;100.00;102427.19;5113883;28;20030;-45
2023/05/29 01:15:24;;;;;;;15.93;4.50;;;;;;;9.85;100.00;102454.34;5115370;28;20027;-49
2023/05/29 01:18:17;;;;;;;13.73;3.78;;;;;;;9.81;100.00;102456.13;5101745;28;20032;-45
2023/05/29 01:20:47;;;;;;;17.73;4.80;;;;;;;9.33;100.00;102375.66;5095224;28;20057;-47
2023/05/29 01:23:18;;;;;;;11.15;3.78;;;;;;;9.72;100.00;102448.25;5094709;28;20028;-47
2023/05/29 01:26:15;;;;;;;16.73;3.95;;;;;;;9.54;100.00;102422.03;5095035;28;20036;-46
2023/05/29 01:28:42;;;;;;;16.08;3.65;;;;;;;9.65;100.00;102454.44;5094779;28;20028;-43
2023/05/29 01:31:10;;;;;;;17.02;4.10;;;;;;;9.63;100.00;102446.53;5094005;28;20056;-47
2023/05/29 01:33:40;;;;;;;14.57;4.70;;;;;;;9.64;100.00;102460.56;5094307;28;20048;-46
2023/05/29 01:36:06;;;;;;;14.27;4.60;;;;;;;9.61;100.00;102455.31;5094821;28;20036;-43
2023/05/29 01:38:32;;;;;;;12.55;2.97;;;;;;;9.57;100.00;102464.94;5094412;28;20068;-47
2023/05/29 01:40:57;;;;;;;18.23;3.17;;;;;;;9.56;100.00;102462.34;5095234;28;20077;-46
2023/05/29 01:43:23;;;;;;;16.60;3.55;;;;;;;9.51;100.00;102465.00;5093417;28;20044;-47
2023/05/29 01:45:49;;;;;;;14.73;3.70;;;;;;;9.46;100.00;102447.44;5093730;28;20028;-48
2023/05/29 01:48:14;;;;;;;14.77;4.22;;;;;;;8.33;100.00;102273.44;5094621;28;20479;-46
2023/05/29 01:50:40;;;;;;;11.82;3.50;;;;;;;9.45;100.00;102456.22;5094630;28;20111;-47
2023/05/29 01:53:05;;;;;;;11.23;3.58;;;;;;;9.47;100.00;102467.63;5093309;28;20044;-47
2023/05/29 01:55:31;;;;;;;12.43;3.20;;;;;;;9.42;100.00;102465.00;5096217;28;20044;-46
2023/05/29 01:57:56;;;;;;;11.40;3.55;;;;;;;9.42;100.00;102478.16;5114738;27;20076;-45
2023/05/29 02:00:22;;;;;;;15.70;3.75;;;;;;;9.37;100.00;102468.53;5113443;28;20031;-46
2023/05/29 02:02:47;;;;;;;15.35;3.80;;;;;;;9.34;100.00;102479.88;5114860;28;20031;-46
2023/05/29 02:05:13;;;;;;;13.23;3.22;;;;;;;9.27;100.00;102464.16;5114508;28;20107;-44
2023/05/29 02:07:38;;;;;;;16.02;3.50;;;;;;;8.95;100.00;102406.38;5114713;28;20066;-46
2023/05/29 02:10:04;;;;;;;15.32;3.47;;;;;;;8.92;100.00;102401.13;5114543;28;20115;-50
2023/05/29 02:12:30;;;;;;;13.05;3.85;;;;;;;9.31;100.00;102479.88;5113342;28;20028;-46
2023/05/29 02:14:56;;;;;;;16.60;3.83;;;;;;;9.34;100.00;102477.25;5114693;28;20036;-48
2023/05/29 02:17:22;;;;;;;17.40;4.60;;;;;;;9.23;100.00;102462.38;5114706;28;20032;-45
2023/05/29 02:19:47;;;;;;;18.75;4.35;;;;;;;9.34;100.00;102484.28;5108323;28;20397;-47
2023/05/29 02:22:12;;;;;;;10.90;2.78;;;;;;;9.31;100.00;102477.25;5092665;28;20119;-46
2023/05/29 02:24:38;;;;;;;14.48;3.53;;;;;;;8.48;100.00;102327.66;5094069;28;20040;-46
2023/05/29 02:27:03;;;;;;;12.73;3.30;;;;;;;9.33;100.00;102482.53;5092591;28;20029;-46
2023/05/29 02:29:29;;;;;;;15.00;3.45;;;;;;;8.86;100.00;102402.03;5093832;28;20043;-47
2023/05/29 02:31:54;;;;;;;16.17;3.58;;;;;;;8.84;100.00;102388.00;5093968;28;20036;-46
2023/05/29 02:34:22;;;;;;;15.60;3.03;;;;;;;9.23;100.00;102458.00;5093784;28;20032;-49
2023/05/29 02:36:48;;;;;;;14.30;3.55;;;;;;;8.74;100.00;102367.00;5092365;28;20028;-46
2023/05/29 02:39:14;;;;;;;17.00;3.63;;;;;;;9.44;100.00;102480.75;5092378;28;20047;-47
2023/05/29 02:41:39;;;;;;;15.23;3.30;;;;;;;8.98;100.00;102381.00;5093601;28;20402;-48
2023/05/29 02:44:04;;;;;;;14.43;3.53;;;;;;;9.44;100.00;102460.63;5093614;28;20116;-47
2023/05/29 02:46:29;;;;;;;12.05;3.53;;;;;;;9.56;100.00;102488.63;5075420;28;20190;-49
2023/05/29 02:48:55;;;;;;;16.10;3.88;;;;;;;9.61;100.00;102479.84;5093735;28;20044;-48
2023/05/29 02:51:20;;;;;;;13.77;3.88;;;;;;;9.21;100.00;102399.34;5093606;28;20069;-51
2023/05/29 02:53:45;;;;;;;12.05;4.25;;;;;;;9.56;100.00;102471.09;5097947;28;20035;-50
2023/05/29 02:56:12;;;;;;;15.40;3.13;;;;;;;9.67;100.00;102471.06;5113427;28;20126;-47
2023/05/29 02:58:37;;;;;;;13.52;2.97;;;;;;;9.28;100.00;102397.59;5113793;28;20027;-50
2023/05/29 03:01:03;;;;;;;17.80;3.67;;;;;;;9.59;100.00;102449.19;5113866;28;20050;-47
2023/05/29 03:03:29;;;;;;;12.25;3.28;;;;;;;9.70;100.00;102483.31;5113715;28;20463;-46
2023/05/29 03:05:54;;;;;;;18.13;3.92;;;;;;;9.59;100.00;102457.94;5112218;28;20067;-47
2023/05/29 03:08:20;;;;;;;14.70;3.42;;;;;;;9.72;100.00;102482.44;5112174;28;20044;-49
2023/05/29 03:10:47;;;;;;;12.88;3.30;;;;;;;9.68;100.00;102493.88;5100988;28;20039;-47
2023/05/29 03:13:12;;;;;;;11.10;3.22;;;;;;;9.33;100.00;102422.09;5093062;28;20055;-49
2023/05/29 03:15:37;;;;;;;12.75;3.42;;;;;;;9.72;100.00;102485.06;5093030;28;20467;-50
2023/05/29 03:18:03;;;;;;;16.80;3.60;;;;;;;9.65;100.00;102472.84;5091724;28;20093;-44
2023/05/29 03:20:28;;;;;;;12.73;3.33;;;;;;;9.70;100.00;102481.56;5092822;28;20453;-49
2023/05/29 03:22:53;;;;;;;13.90;3.20;;;;;;;9.69;100.00;102477.19;5092916;28;20119;-45
2023/05/29 03:25:20;;;;;;;11.23;2.75;;;;;;;9.26;100.00;102402.84;5093305;28;20039;-45
2023/05/29 03:27:45;;;;;;;15.18;3.78;;;;;;;9.16;100.00;102384.47;5102563;28;20089;-45
2023/05/29 03:30:11;;;;;;;11.68;3.55;;;;;;;9.64;100.00;102468.44;5113027;28;20035;-47
2023/05/29 03:32:36;;;;;;;16.77;2.83;;;;;;;9.50;100.00;102449.22;5095055;28;20038;-50
2023/05/29 03:35:03;;;;;;;14.57;3.30;;;;;;;9.23;100.00;102417.72;5112790;28;20035;-47
2023/05/29 03:37:29;;;;;;;16.52;3.85;;;;;;;9.58;100.00;102464.09;5111834;28;20030;-47
2023/05/29 03:39:54;;;;;;;16.77;3.72;;;;;;;9.58;100.00;102466.72;5111478;28;20028;-48
2023/05/29 03:42:20;;;;;;;13.15;3.60;;;;;;;9.59;100.00;102465.84;5111489;28;20024;-46
2023/05/29 03:44:45;;;;;;;10.13;2.80;;;;;;;9.65;100.00;102487.72;5111886;28;20168;-47
2023/05/29 03:47:11;;;;;;;11.27;3.10;;;;;;;9.36;100.00;102415.09;5113033;28;20032;-48
2023/05/29 03:49:36;;;;;;;12.25;3.00;;;;;;;9.71;100.00;102485.97;5112701;28;20032;-48
2023/05/29 03:52:02;;;;;;;13.68;3.20;;;;;;;9.38;100.00;102426.47;5112829;28;20063;-47
2023/05/29 03:54:27;;;;;;;15.98;3.40;;;;;;;9.35;100.00;102415.94;5112548;28;20113;-48
2023/05/29 03:56:52;;;;;;;12.48;3.28;;;;;;;9.84;100.00;102516.59;5112980;28;20114;-45
2023/05/29 03:59:17;;;;;;;12.20;2.80;;;;;;;9.87;100.00;102492.91;5111833;28;20036;-43
2023/05/29 04:01:43;;;;;;;14.05;3.08;;;;;;;9.90;100.00;102487.66;5111630;28;20042;-46
2023/05/29 04:04:08;;;;;;;16.77;3.42;;;;;;;9.94;100.00;102499.03;5111396;28;20039;-47
2023/05/29 04:06:38;;;;;;;16.63;3.25;;;;;;;9.99;100.00;102499.88;5112445;28;20272;-48
2023/05/29 04:09:04;;;;;;;16.52;2.78;;;;;;;9.57;100.00;102425.50;5112485;28;20080;-49
2023/05/29 04:11:29;;;;;;;16.15;3.03;;;;;;;9.59;100.00;102421.16;5111526;28;20028;-50
2023/05/29 04:13:55;;;;;;;17.58;3.28;;;;;;;9.82;100.00;102454.38;5112677;28;20497;-48
2023/05/29 04:16:20;;;;;;;15.48;3.55;;;;;;;10.11;100.00;102495.47;5112533;28;20074;-46
2023/05/29 04:18:46;;;;;;;15.48;2.72;;;;;;;9.85;100.00;102438.56;5100957;28;20036;-45
2023/05/29 04:21:11;;;;;;;20.58;4.38;;;;;;;9.80;100.00;102446.50;5092162;28;20036;-48
2023/05/29 04:23:37;;;;;;;15.02;4.20;;;;;;;9.81;100.00;102449.97;5092009;28;20028;-46
2023/05/29 04:26:02;;;;;;;13.75;3.40;;;;;;;9.83;100.00;102450.88;5092452;28;20040;-48
2023/05/29 04:28:27;;;;;;;10.60;2.95;;;;;;;10.15;100.00;102506.88;5092252;28;20028;-46
2023/05/29 04:30:55;;;;;;;15.07;3.47;;;;;;;10.05;100.00;102498.13;5092105;28;20036;-47
2023/05/29 04:33:23;;;;;;;10.38;2.83;;;;;;;9.78;100.00;102448.22;5090821;28;20039;-46
2023/05/29 04:35:48;;;;;;;15.57;3.60;;;;;;;10.16;100.00;102524.41;5104453;28;20036;-45
2023/05/29 04:38:14;;;;;;;15.95;3.63;;;;;;;10.11;100.00;102507.75;5111290;28;20031;-46
2023/05/29 04:40:40;;;;;;;18.27;3.58;;;;;;;9.79;100.00;102447.38;5112552;28;20066;-45
2023/05/29 04:43:05;;;;;;;11.50;3.15;;;;;;;10.22;100.00;102526.13;5112213;28;20031;-46
2023/05/29 04:45:31;;;;;;;14.10;3.08;;;;;;;10.29;100.00;102520.84;5112069;28;20096;-45
2023/05/29 04:47:56;;;;;;;12.07;3.65;;;;;;;10.11;100.00;102498.09;5094123;28;20042;-47
2023/05/29 04:50:23;;;;;;;19.30;3.75;;;;;;;9.98;100.00;102450.81;5110895;28;20463;-47
2023/05/29 04:52:48;;;;;;;14.25;4.00;;;;;;;9.91;100.00;102455.22;5110643;28;20039;-46
2023/05/29 04:55:14;;;;;;;11.27;3.17;;;;;;;10.00;100.00;102464.81;5110701;28;20559;-49
2023/05/29 04:57:40;;;;;;;13.73;3.20;;;;;;;10.35;100.00;102530.47;5112282;28;20462;-51
2023/05/29 05:00:12;;;;;;;12.90;3.20;;;;;;;10.38;100.00;102535.72;5112096;28;20035;-44
2023/05/29 05:02:39;;;;;;;11.65;2.92;;;;;;;10.29;100.00;102527.88;5095253;28;20369;-50
2023/05/29 05:05:04;;;;;;;10.73;3.15;;;;;;;10.41;100.00;102543.63;5095427;28;20039;-46
2023/05/29 05:07:30;;;;;;;14.13;3.08;;;;;;;10.45;100.00;102535.69;5095201;28;20041;-48
2023/05/29 05:09:55;;;;;;;16.23;3.55;;;;;;;10.45;100.00;102525.16;5095553;28;20046;-48
2023/05/29 05:12:21;;;;;;;16.13;3.65;;;;;;;10.59;100.00;102522.47;5094297;28;20036;-46
2023/05/29 05:14:46;;;;;;;15.25;3.22;;;;;;;10.69;100.00;102538.19;5095480;28;20119;-46
2023/05/29 05:17:11;;;;;;;11.95;3.03;;;;;;;10.82;100.00;102549.53;5102017;28;20037;-46
2023/05/29 05:19:37;;;;;;;11.30;3.03;;;;;;;10.78;100.00;102536.38;5115675;28;20061;-47
2023/05/29 05:22:02;;;;;;;17.13;3.88;;;;;;;10.93;100.00;102541.56;5115500;27;20153;-45
2023/05/29 05:24:27;;;;;;;14.52;3.10;;;;;;;10.63;100.00;102467.13;5115414;28;20084;-46
2023/05/29 05:26:53;;;;;;;9.30;2.85;;;;;;;10.68;100.00;102469.75;5115668;27;20492;-46
2023/05/29 05:29:19;;;;;;;12.88;4.57;;;;;;;11.15;100.00;102535.22;5115332;28;20060;-46
2023/05/29 05:31:45;;;;;;;14.85;3.83;;;;;;;11.32;100.00;102553.56;5114225;28;20035;-52
2023/05/29 05:34:10;;;;;;;13.35;3.20;;;;;;;11.29;100.00;102552.69;5114029;28;20540;-53
2023/05/29 05:36:36;;;;;;;9.50;2.92;;;;;;;11.38;100.00;102557.03;5115112;28;20119;-46
2023/05/29 05:39:02;;;;;;;14.93;3.58;;;;;;;11.15;100.00;102543.13;5115335;28;20031;-48
2023/05/29 05:41:27;;;;;;;14.48;3.85;;;;;;;10.94;100.00;102493.25;5115390;28;20057;-47
2023/05/29 05:43:52;;;;;;;14.10;3.58;;;;;;;11.14;100.00;102508.03;5115196;28;20390;-48
2023/05/29 05:46:18;;;;;;;11.43;3.30;;;;;;;11.14;100.00;102502.75;5115149;28;20092;-48
2023/05/29 05:48:43;;;;;;;10.65;2.97;;;;;;;11.37;100.00;102531.53;5109074;28;20096;-47
2023/05/29 05:51:08;;;;;;;9.45;2.90;;;;;;;11.25;100.00;102500.00;5094519;28;20432;-46
2023/05/29 05:53:34;;;;;;;14.38;3.47;;;;;;;11.69;100.00;102555.88;5093429;28;20050;-45
2023/05/29 05:56:00;;;;;;;12.25;3.72;;;;;;;11.60;100.00;102549.78;5093962;28;20056;-45
2023/05/29 05:58:25;;;;;;;13.43;3.53;;;;;;;11.73;100.00;102572.56;5094465;28;20410;-47
2023/05/29 06:00:52;;;;;;;10.88;3.83;;;;;;;11.81;100.00;102587.44;5093001;28;20475;-46
2023/05/29 06:03:17;;;;;;;10.38;4.03;;;;;;;11.92;100.00;102578.50;5094346;28;20032;-49
2023/05/29 06:05:43;;;;;;;12.65;3.20;;;;;;;12.09;100.00;102577.44;5098771;28;20123;-46
2023/05/29 06:08:08;;;;;;;16.42;3.20;;;;;;;12.05;100.00;102566.94;5114601;28;20032;-51
2023/05/29 06:10:34;;;;;;;19.77;3.30;;;;;;;12.32;100.00;102580.69;5114719;28;20040;-47
2023/05/29 06:13:00;;;;;;;15.93;3.80;;;;;;;12.06;100.00;102513.25;5114398;28;20395;-50
2023/05/29 06:15:25;;;;;;;12.57;2.97;;;;;;;12.48;100.00;102594.59;5113092;28;20040;-49
2023/05/29 06:17:51;;;;;;;13.35;3.42;;;;;;;12.51;100.00;102588.41;5109680;28;20042;-49
2023/05/29 06:20:17;;;;;;;14.32;3.30;;;;;;;12.13;100.00;102533.41;5112102;28;20482;-50
2023/05/29 06:22:42;;;;;;;12.65;3.00;;;;;;;12.21;100.00;102579.94;5108962;28;20038;-47
2023/05/29 06:25:09;;;;;;;12.93;3.38;;;;;;;11.87;100.00;102515.25;5114149;28;20439;-49
2023/05/29 06:27:34;;;;;;;15.07;3.40;;;;;;;12.30;100.00;102569.28;5112118;28;20131;-47
2023/05/29 06:30:00;;;;;;;16.70;3.90;;;;;;;12.51;100.00;102591.91;5113793;28;20114;-48
2023/05/29 06:32:27;;;;;;;19.50;3.40;;;;;;;12.09;100.00;102518.50;5113992;28;20032;-49
2023/05/29 06:34:53;;;;;;;14.45;3.42;;;;;;;12.14;100.00;102521.97;5113689;28;20063;-45
2023/05/29 06:37:18;;;;;;;14.52;2.83;;;;;;;12.57;100.00;102577.75;5112738;28;20042;-50
2023/05/29 06:39:45;;;;;;;14.85;2.97;;;;;;;12.20;100.00;102593.19;5111165;28;20402;-49
2023/05/29 06:42:10;;;;;;;10.75;3.13;;;;;;;12.30;100.00;102573.69;5114034;28;20027;-47
2023/05/29 06:44:35;;;;;;;15.23;2.92;;;;;;;12.59;100.00;102597.09;5105373;28;20043;-46
2023/05/29 06:47:01;;;;;;;11.13;3.28;;;;;;;12.35;100.00;102574.50;5093366;28;20035;-45
2023/05/29 06:49:26;;;;;;;14.73;3.78;;;;;;;12.31;100.00;102518.22;5102244;28;20137;-45
2023/05/29 06:51:51;;;;;;;9.77;2.92;;;;;;;12.45;100.00;102522.44;5113485;28;20034;-45
2023/05/29 06:54:17;;;;;;;11.25;3.40;;;;;;;12.93;100.00;102591.31;5113608;28;20056;-49
2023/05/29 06:56:42;;;;;;;12.07;3.80;;;;;;;13.07;100.00;102603.47;5112278;28;20471;-50
2023/05/29 06:59:08;;;;;;;7.88;2.97;;;;;;;12.63;100.00;102530.13;5113712;28;20031;-52
2023/05/29 07:01:33;;;;;;;11.93;2.78;;;;;;;13.23;100.00;102605.03;5093263;28;20042;-46
2023/05/29 07:03:58;;;;;;;9.05;2.78;;;;;;;12.97;100.00;102558.69;5094067;28;20522;-48
2023/05/29 07:06:24;;;;;;;11.18;3.25;;;;;;;13.07;100.00;102590.25;5093374;28;20028;-49
2023/05/29 07:08:49;;;;;;;10.68;2.78;;;;;;;13.30;100.00;102591.69;5095299;28;20110;-49
2023/05/29 07:11:15;;;;;;;12.55;3.13;;;;;;;13.11;100.00;102534.69;5109699;28;20416;-47
2023/05/29 07:13:40;;;;;;;11.23;2.78;;;;;;;13.25;100.00;102572.34;5111647;28;20074;-47
2023/05/29 07:16:06;;;;;;;11.07;2.60;;;;;;;13.54;100.00;102622.19;5100384;28;20448;-46
2023/05/29 07:18:31;;;;;;;9.73;2.75;;;;;;;13.54;100.00;102614.25;5105526;28;20063;-47
2023/05/29 07:20:57;;;;;;;7.55;2.55;;;;;;;13.40;100.00;102609.16;5110369;28;20034;-47
2023/05/29 07:23:22;;;;;;;7.35;2.53;;;;;;;13.30;100.00;102580.25;5113402;28;20078;-48
2023/05/29 07:25:47;;;;;;;8.32;2.42;;;;;;;13.32;100.00;102547.56;5112996;28;20111;-47
2023/05/29 07:28:13;;;;;;;12.48;2.80;;;;;;;13.87;100.00;102588.94;5111150;28;20036;-48
2023/05/29 07:30:38;;;;;;;10.65;2.80;;;;;;;14.15;100.00;102607.84;5111224;28;20027;-48
2023/05/29 07:33:04;;;;;;;7.00;2.22;;;;;;;14.34;100.00;102641.91;5112848;28;20090;-49
2023/05/29 07:35:32;;;;;;;10.57;2.97;;;;;;;14.49;100.00;102635.44;5113110;28;20039;-49
2023/05/29 07:37:58;;;;;;;10.20;3.03;;;;;;;14.64;100.00;102629.84;5095267;28;20043;-50
2023/05/29 07:40:23;;;;;;;8.00;2.65;;;;;;;14.91;100.00;102631.03;5111705;28;20027;-48
2023/05/29 07:42:49;;;;;;;13.02;2.97;;;;;;;14.94;100.00;102618.59;5112841;28;20428;-51
2023/05/29 07:45:14;;;;;;;9.15;3.05;;;;;;;14.89;100.00;102625.75;5112533;28;20413;-51
2023/05/29 07:47:40;;;;;;;12.63;2.40;;;;;;;14.98;100.00;102556.59;5112513;28;20459;-46
2023/05/29 07:50:06;;;;;;;9.40;3.17;;;;;;;15.90;100.00;102627.75;5111438;28;20533;-45
2023/05/29 07:52:31;;;;;;;13.45;3.10;;;;;;;16.14;100.00;102626.25;5109728;28;20594;-51
2023/05/29 07:54:57;;;;;;;8.00;2.30;;;;;;;15.69;100.00;102580.53;5092636;28;20055;-47
2023/05/29 07:57:23;;;;;;;9.88;2.80;;;;;;;16.10;100.00;102628.09;5092459;28;20067;-47
2023/05/29 07:59:51;;;;;;;8.40;2.85;;;;;;;14.90;100.00;102594.81;5092184;28;20043;-47
2023/05/29 08:02:16;;;;;;;8.70;2.90;;;;;;;15.54;100.00;102641.94;5092234;28;20051;-49
2023/05/29 08:04:42;;;;;;;7.45;2.50;;;;;;;15.73;100.00;102643.25;5092109;28;20029;-51
2023/05/29 08:07:08;;;;;;;6.78;2.70;;;;;;;15.93;100.00;102646.28;5092676;28;20153;-50
2023/05/29 08:09:35;;;;;;;10.20;2.63;;;;;;;15.19;100.00;102582.63;5093667;28;20114;-50
2023/05/29 08:12:00;;;;;;;9.75;2.70;;;;;;;14.96;100.00;102602.63;5091182;28;20475;-49
2023/05/29 08:14:26;;;;;;;7.95;2.88;;;;;;;14.91;100.00;102665.50;5092278;28;20044;-45
2023/05/29 08:16:51;;;;;;;11.10;2.95;;;;;;;15.00;100.00;102655.53;5092175;28;20539;-47
2023/05/29 08:19:17;;;;;;;13.18;2.70;;;;;;;15.52;100.00;102649.97;5091860;28;20036;-55
2023/05/29 08:21:42;;;;;;;6.53;2.28;;;;;;;16.32;100.00;102637.22;5092249;28;20466;-50
2023/05/29 08:24:08;;;;;;;12.35;3.20;;;;;;;16.32;100.00;102610.63;5092663;28;20123;-48
2023/05/29 08:26:34;;;;;;;7.35;2.20;;;;;;;16.34;100.00;102616.78;5090808;28;20490;-49
2023/05/29 08:28:59;;;;;;;11.98;2.53;;;;;;;16.65;100.00;102671.78;5090908;28;20036;-53
2023/05/29 08:31:25;;;;;;;6.85;2.22;;;;;;;15.51;100.00;102607.53;5090657;28;20047;-50
2023/05/29 08:33:51;;;;;;;6.57;2.38;;;;;;;16.58;100.00;102680.84;5092280;28;20036;-47
2023/05/29 08:36:17;;;;;;;6.80;2.63;;;;;;;16.30;100.00;102598.31;5092361;28;20121;-47
2023/05/29 08:38:42;;;;;;;12.95;2.90;;;;;;;16.73;100.00;102624.56;5096000;28;20038;-47
2023/05/29 08:41:10;;;;;;;8.73;3.08;;;;;;;16.03;100.00;102631.81;5095998;28;20039;-45
2023/05/29 08:43:35;;;;;;;9.23;3.08;;;;;;;16.07;100.00;102680.44;5112633;28;20046;-55
2023/05/29 08:46:02;;;;;;;9.93;2.80;;;;;;;15.74;100.00;102610.47;5115919;28;20106;-53
2023/05/29 08:48:29;;;;;;;7.85;2.05;;;;;;;16.32;100.00;102652.28;5116428;28;20092;-49
2023/05/29 08:50:56;;;;;;;5.85;2.35;;;;;;;16.64;100.00;102622.16;5114954;28;20042;-46
2023/05/29 08:53:23;;;;;;;9.98;2.83;;;;;;;17.44;100.00;102633.84;5116103;28;20032;-47
2023/05/29 08:55:51;;;;;;;12.75;2.70;;;;;;;17.39;100.00;102627.81;5114486;28;20372;-48
2023/05/29 08:58:17;;;;;;;10.20;2.22;;;;;;;17.17;100.00;102625.84;5105774;28;20040;-47
2023/05/29 09:00:44;;;;;;;9.90;2.45;;;;;;;17.29;100.00;102623.69;5095137;28;20536;-47
2023/05/29 09:03:09;;;;;;;13.05;3.03;;;;;;;18.37;100.00;102692.84;5095613;28;20078;-48
2023/05/29 09:05:39;;;;;;;9.20;2.83;;;;;;;17.88;100.00;102683.00;5094227;28;20040;-47
2023/05/29 09:08:04;;;;;;;10.57;2.40;;;;;;;17.87;100.00;102635.97;5095394;28;20490;-47
2023/05/29 09:10:30;;;;;;;9.55;2.60;;;;;;;18.32;100.00;102632.59;5095337;28;20032;-47
2023/05/29 09:12:56;;;;;;;5.55;2.40;;;;;;;19.01;100.00;102690.50;5095275;28;20028;-50
2023/05/29 09:15:23;;;;;;;6.75;2.20;;;;;;;18.33;100.00;102656.53;5092997;28;20032;-51
2023/05/29 09:17:55;;;;;;;12.90;3.00;;;;;;;17.68;100.00;102706.78;5095214;28;20063;-55
2023/05/29 09:20:24;;;;;;;7.93;2.30;;;;;;;17.56;100.00;102696.50;5095287;28;20559;-48
2023/05/29 09:22:56;;;;;;;8.10;2.65;;;;;;;17.92;100.00;102686.44;5093914;28;20059;-51
2023/05/29 09:25:27;;;;;;;7.10;2.10;;;;;;;17.90;100.00;102635.88;5076854;28;20114;-45
2023/05/29 09:28:00;;;;;;;9.77;2.63;;;;;;;17.13;100.00;102633.06;5076789;28;20500;-49
2023/05/29 09:30:34;;;;;;;8.60;2.88;;;;;;;17.11;100.00;102697.88;5095267;28;20036;-46
2023/05/29 09:33:00;;;;;;;6.18;2.47;;;;;;;16.99;100.00;102629.09;5115154;28;20027;-47
2023/05/29 09:35:32;;;;;;;10.68;2.55;;;;;;;17.50;100.00;102610.59;5114017;28;20425;-49
2023/05/29 09:37:57;;;;;;;12.88;2.53;;;;;;;18.15;100.00;102681.19;5114926;28;20481;-49
2023/05/29 09:40:23;;;;;;;7.85;2.42;;;;;;;18.59;100.00;102630.75;5115088;28;20120;-50
2023/05/29 09:42:48;;;;;;;8.88;2.70;;;;;;;19.43;100.00;102670.16;5114028;28;20111;-47
2023/05/29 09:45:17;;;;;;;7.72;2.03;;;;;;;19.66;100.00;102618.47;5113709;28;20034;-49
2023/05/29 09:47:43;;;;;;;8.65;2.63;;;;;;;19.73;100.00;102675.19;5112186;28;20407;-46
2023/05/29 09:50:18;;;;;;;9.35;2.63;;;;;;;18.98;100.00;102624.75;5094662;28;20040;-45
2023/05/29 09:52:43;;;;;;;8.80;2.45;;;;;;;19.85;100.00;102680.88;5093241;28;20024;-48
2023/05/29 09:55:10;;;;;;;8.75;2.25;;;;;;;19.17;100.00;102619.56;5094297;28;20059;-48
2023/05/29 09:57:36;;;;;;;6.80;2.55;;;;;;;19.73;100.00;102672.50;5093487;28;20055;-49
2023/05/29 10:00:03;;;;;;;9.85;2.92;;;;;;;18.74;100.00;102611.53;5093260;28;20043;-47
2023/05/29 10:02:29;;;;;;;6.40;2.22;;;;;;;18.77;100.00;102636.25;5091366;28;20063;-46
2023/05/29 10:04:54;;;;;;;6.65;2.33;;;;;;;18.94;100.00;102616.94;5103843;28;20059;-48
2023/05/29 10:07:27;;;;;;;7.07;2.22;;;;;;;19.97;100.00;102691.03;5114004;28;20406;-49
2023/05/29 10:09:58;;;;;;;8.32;2.22;;;;;;;20.06;100.00;102601.56;5113609;28;20031;-51
2023/05/29 10:12:23;;;;;;;;;;;;;;;20.42;100.00;102682.88;5113984;28;20032;-47
2023/05/29 10:14:49;;;;;;;5.60;2.33;;;;;;;20.12;100.00;102617.34;5096154;28;19912;-48
2023/05/29 10:17:18;;;;;;;8.02;2.78;;;;;;;19.18;100.00;102559.03;5114360;28;20261;-48
2023/05/29 10:19:46;;;;;;;6.80;2.45;;;;;;;19.23;100.00;102655.84;5113260;28;20355;-50
2023/05/29 10:22:13;;;;;;;6.05;2.22;;;;;;;18.62;100.00;102649.31;5094309;28;20036;-49
2023/05/29 10:24:38;;;;;;;7.63;2.42;;;;;;;19.33;100.00;102609.13;5092910;28;20040;-51
2023/05/29 10:27:04;;;;;;;12.13;3.03;;;;;;;19.49;100.00;102608.50;5109845;28;20035;-50
2023/05/29 10:29:43;;;;;;;5.82;2.42;;;;;;;18.86;100.00;102693.72;5106149;28;20020;-47
2023/05/29 10:32:27;;;;;;;6.78;2.33;;;;;;;18.65;100.00;102679.38;5110045;28;20028;-46
2023/05/29 10:35:02;;;;;;;8.50;3.22;;;;;;;19.01;100.00;102687.81;5095919;28;20040;-47
2023/05/29 10:37:35;;;;;;;6.28;2.20;;;;;;;19.57;100.00;102634.88;5113695;28;20066;-49
2023/05/29 10:40:07;;;;;;;8.25;2.60;;;;;;;19.34;100.00;102625.09;5111833;28;20463;-45
2023/05/29 10:42:49;;;;;;;7.43;3.00;;;;;;;19.06;100.00;102603.09;5114278;28;20110;-43
2023/05/29 10:45:32;;;;;;;8.70;2.60;;;;;;;19.68;100.00;102680.69;5095711;28;20026;-44
2023/05/29 10:48:06;;;;;;;8.50;2.55;;;;;;;19.60;100.00;102681.03;5107176;28;20115;-44
2023/05/29 10:50:41;;;;;;;8.93;3.28;;;;;;;19.59;100.00;102587.59;5109255;28;20058;-45
2023/05/29 10:53:10;;;;;;;6.25;2.20;;;;;;;20.03;100.00;102607.03;5095576;28;20027;-43
2023/05/29 10:55:40;;;;;;;7.88;2.70;;;;;;;20.08;100.00;102643.31;5111544;28;20059;-45
2023/05/29 10:58:07;;;;;;;7.03;2.38;;;;;;;19.79;100.00;102603.63;5113226;27;20154;-49
2023/05/29 11:00:32;;;;;;;6.38;2.63;;;;;;;21.28;100.00;102673.50;5113036;28;20035;-50
2023/05/29 11:03:03;;;;;;;9.52;3.28;;;;;;;21.72;100.00;102646.31;5112084;28;20394;-48
2023/05/29 11:05:28;;;;;;;9.98;3.95;;;;;;;21.52;100.00;102611.63;5111081;28;20039;-49
2023/05/29 11:08:02;;;;;;;6.03;2.40;;;;;;;21.13;100.00;102609.97;5104777;28;20032;-49
2023/05/29 11:10:56;;;;;;;8.18;3.08;;;;;;;20.37;100.00;102659.94;5093241;28;20051;-50
2023/05/29 11:13:35;;;;;;;9.02;3.03;;;;;;;19.80;100.00;102602.69;5093146;28;20107;-46